Time;durP1;ratioP1;P1;durP2;ratioP2;P2;SDS_P1;SDS_P2;PMS_P1;PMS_P2;Temp;Humidity;BMP_temperature;BMP_pressure;BME280_temperature;BME280_humidity;BME280_pressure;Samples;Min_cycle;Max_cycle;Signal;HPM_P1;HPM_P2
2023/05/05 00:01:06;;;;;;;14.20;9.00;;;;;;;13.97;66.02;101616.51;107565;1253;109725;-60
2023/05/05 00:03:35;;;;;;;16.80;10.10;;;;;;;13.91;66.88;101617.42;107584;1254;109514;-60
2023/05/05 00:06:04;;;;;;;17.00;8.30;;;;;;;13.77;67.25;101616.11;107574;1254;97810;-60
2023/05/05 00:08:33;;;;;;;14.40;8.90;;;;;;;13.66;67.62;101611.69;107498;1256;98324;-61
2023/05/05 00:11:01;;;;;;;16.30;8.60;;;;;;;13.57;67.58;101607.63;107555;1256;111879;-59
2023/05/05 00:13:30;;;;;;;16.10;9.60;;;;;;;13.50;67.69;101610.20;107603;1256;109731;-60
2023/05/05 00:15:59;;;;;;;18.50;9.80;;;;;;;13.48;67.79;101608.77;107595;1251;106866;-59
2023/05/05 00:18:28;;;;;;;17.50;10.00;;;;;;;13.52;68.01;101609.18;107567;1251;97922;-61
2023/05/05 00:20:56;;;;;;;18.10;8.80;;;;;;;13.57;68.03;101608.52;107569;1251;98359;-59
2023/05/05 00:23:25;;;;;;;16.30;9.50;;;;;;;13.62;67.88;101603.93;107578;1257;111730;-61
2023/05/05 00:25:56;;;;;;;23.60;9.60;;;;;;;13.65;68.21;101604.26;107535;1251;109726;-60
2023/05/05 00:28:27;;;;;;;25.20;9.50;;;;;;;13.64;67.73;101603.80;107554;1251;108574;-59
2023/05/05 00:30:55;;;;;;;21.40;9.80;;;;;;;13.58;67.72;101601.02;107544;1254;97957;-59
2023/05/05 00:33:24;;;;;;;19.50;9.30;;;;;;;13.54;67.63;101598.11;107620;1251;98360;-59
2023/05/05 00:35:53;;;;;;;14.20;8.90;;;;;;;13.54;67.75;101601.23;107607;1251;112266;-62
2023/05/05 00:38:22;;;;;;;19.10;9.40;;;;;;;13.53;67.85;101601.46;107537;1257;109873;-61
2023/05/05 00:40:50;;;;;;;21.40;9.50;;;;;;;13.51;68.37;101600.64;107550;1256;108678;-60
2023/05/05 00:43:18;;;;;;;19.40;8.70;;;;;;;13.45;68.06;101597.98;107560;1256;97800;-61
2023/05/05 00:45:56;;;;;;;23.80;10.40;;;;;;;13.45;68.29;101597.30;107640;1254;98344;-59
2023/05/05 00:48:25;;;;;;;18.60;9.70;;;;;;;13.44;68.32;101593.80;107648;1251;112400;-60
2023/05/05 00:50:53;;;;;;;25.60;9.90;;;;;;;13.40;68.21;101591.20;107543;1257;109836;-59
2023/05/05 00:53:22;;;;;;;24.60;9.50;;;;;;;13.40;68.11;101592.52;107507;1254;107447;-61
2023/05/05 00:55:50;;;;;;;19.80;10.40;;;;;;;13.42;68.18;101591.38;107495;1254;97701;-61
2023/05/05 00:58:19;;;;;;;23.40;10.60;;;;;;;13.47;68.20;101593.17;107544;1252;97834;-59
2023/05/05 01:00:47;;;;;;;17.00;10.00;;;;;;;13.51;68.12;101589.95;107423;1257;112037;-59
2023/05/05 01:03:16;;;;;;;19.40;9.70;;;;;;;13.50;68.43;101589.71;107641;1251;111098;-62
2023/05/05 01:05:57;;;;;;;22.30;11.10;;;;;;;13.41;68.75;101595.63;107608;1255;107579;-60
2023/05/05 01:08:54;;;;;;;20.30;9.60;;;;;;;13.29;68.92;101593.60;107560;1251;97823;-59
2023/05/05 01:11:30;;;;;;;21.60;10.40;;;;;;;13.23;68.87;101590.86;107559;1254;98337;-59
2023/05/05 01:14:18;;;;;;;16.10;9.90;;;;;;;13.29;69.85;101589.81;107630;1251;112443;-59
2023/05/05 01:16:58;;;;;;;13.60;9.40;;;;;;;13.34;70.45;101587.95;107524;1254;109551;-59
2023/05/05 01:19:49;;;;;;;23.50;9.20;;;;;;;13.35;69.96;101588.59;107504;1253;108697;-59
2023/05/05 01:22:21;;;;;;;22.90;10.10;;;;;;;13.38;69.64;101587.42;107551;1253;98847;-60
2023/05/05 01:25:13;;;;;;;15.20;10.10;;;;;;;13.42;69.39;101584.07;107599;1251;97726;-61
2023/05/05 01:27:59;;;;;;;19.10;10.80;;;;;;;13.41;69.31;101587.73;107567;1256;111572;-63
2023/05/05 01:30:51;;;;;;;14.40;10.00;;;;;;;13.40;69.00;101580.30;107441;1254;109688;-59
2023/05/05 01:33:26;;;;;;;18.60;9.80;;;;;;;13.43;69.11;101586.33;107524;1256;106519;-60
2023/05/05 01:36:06;;;;;;;15.60;10.10;;;;;;;13.46;69.04;101584.94;107634;1254;97807;-60
2023/05/05 01:38:41;;;;;;;16.50;9.30;;;;;;;13.49;68.99;101585.23;107608;1254;97835;-59
2023/05/05 01:41:27;;;;;;;17.30;9.40;;;;;;;13.51;69.03;101583.61;107614;1251;111734;-60
2023/05/05 01:43:59;;;;;;;15.90;10.00;;;;;;;13.54;69.06;101577.12;107660;1251;109297;-61
2023/05/05 01:46:29;;;;;;;19.60;10.10;;;;;;;13.54;68.93;101573.08;107559;1251;107702;-59
2023/05/05 01:48:57;;;;;;;19.90;9.60;;;;;;;13.55;68.95;101575.30;107590;1251;98349;-60
2023/05/05 01:51:27;;;;;;;16.70;10.00;;;;;;;13.57;69.12;101573.73;107599;1254;98335;-60
2023/05/05 01:53:58;;;;;;;18.00;9.80;;;;;;;13.59;69.09;101575.66;107600;1251;112001;-61
2023/05/05 01:56:29;;;;;;;17.30;10.30;;;;;;;13.61;68.80;101567.40;107603;1251;111297;-60
2023/05/05 01:58:59;;;;;;;19.90;10.90;;;;;;;13.61;68.80;101568.13;107542;1254;107588;-60
2023/05/05 02:01:29;;;;;;;16.50;10.20;;;;;;;13.62;68.76;101572.61;107556;1256;97816;-60
2023/05/05 02:03:58;;;;;;;15.70;9.50;;;;;;;13.63;68.86;101573.80;107572;1251;97805;-59
2023/05/05 02:06:31;;;;;;;15.80;10.30;;;;;;;13.64;68.87;101573.71;107549;1251;111948;-59
2023/05/05 02:09:02;;;;;;;26.70;13.10;;;;;;;13.63;68.84;101573.59;107562;1255;109946;-60
2023/05/05 02:11:31;;;;;;;34.40;13.20;;;;;;;13.59;68.86;101578.40;107626;1257;107284;-59
2023/05/05 02:14:01;;;;;;;25.20;10.30;;;;;;;13.53;68.70;101585.48;107575;1254;97817;-64
2023/05/05 02:16:30;;;;;;;22.50;10.50;;;;;;;13.47;68.71;101586.11;107579;1251;97753;-59
2023/05/05 02:19:03;;;;;;;20.90;12.60;;;;;;;13.43;68.93;101585.52;107487;1251;111107;-59
2023/05/05 02:21:33;;;;;;;22.10;12.10;;;;;;;13.36;68.97;101582.53;107424;1254;109057;-59
2023/05/05 02:24:02;;;;;;;23.40;11.10;;;;;;;13.32;69.63;101582.56;107641;1254;108797;-58
2023/05/05 02:26:34;;;;;;;20.00;11.30;;;;;;;13.29;69.93;101581.50;107492;1253;97813;-61
2023/05/05 02:29:13;;;;;;;22.20;13.20;;;;;;;13.26;69.74;101577.85;107532;1254;97841;-59
2023/05/05 02:31:52;;;;;;;14.10;9.60;;;;;;;13.26;69.69;101577.45;107477;1254;111975;-60
2023/05/05 02:34:25;;;;;;;15.70;11.00;;;;;;;13.27;69.92;101577.25;107463;1254;108513;-60
2023/05/05 02:37:01;;;;;;;21.50;11.10;;;;;;;13.26;70.00;101578.36;107487;1254;105822;-60
2023/05/05 02:39:42;;;;;;;19.10;11.10;;;;;;;13.24;70.02;101581.39;107604;1254;97694;-62
2023/05/05 02:42:20;;;;;;;22.20;10.30;;;;;;;13.26;69.83;101579.12;107519;1254;97707;-61
2023/05/05 02:44:50;;;;;;;25.70;11.60;;;;;;;13.26;69.69;101578.95;107487;1254;111179;-59
2023/05/05 02:47:19;;;;;;;23.70;11.60;;;;;;;13.22;69.64;101580.55;107408;1260;110141;-61
2023/05/05 02:49:49;;;;;;;19.30;10.60;;;;;;;13.21;69.75;101582.62;107587;1251;107974;-58
2023/05/05 02:52:18;;;;;;;18.10;11.20;;;;;;;13.22;69.90;101587.55;107487;1254;97821;-59
2023/05/05 02:54:46;;;;;;;24.80;11.50;;;;;;;13.20;69.75;101590.83;107568;1251;98380;-61
2023/05/05 02:57:20;;;;;;;24.60;10.90;;;;;;;13.20;69.91;101588.63;107564;1251;112142;-61
2023/05/05 03:00:08;;;;;;;23.20;11.80;;;;;;;13.22;69.92;101591.50;107492;1254;109903;-60
2023/05/05 03:02:52;;;;;;;25.80;12.80;;;;;;;13.24;69.86;101591.20;107461;1253;108799;-63
2023/05/05 03:05:24;;;;;;;28.90;12.60;;;;;;;13.26;69.92;101596.95;107615;1251;97802;-61
2023/05/05 03:08:35;;;;;;;16.90;11.50;;;;;;;13.29;69.79;101597.57;107581;1256;97941;-61
2023/05/05 03:11:10;;;;;;;19.00;11.40;;;;;;;13.32;69.84;101600.70;107613;1253;113144;-62
2023/05/05 03:13:42;;;;;;;23.90;11.80;;;;;;;13.33;69.83;101600.98;107621;1254;109588;-60
2023/05/05 03:16:17;;;;;;;37.20;12.80;;;;;;;13.30;70.26;101606.52;107594;1251;107675;-60
2023/05/05 03:18:48;;;;;;;19.60;12.40;;;;;;;13.19;70.51;101610.14;107539;1251;97685;-60
2023/05/05 03:21:17;;;;;;;24.00;13.10;;;;;;;13.12;70.24;101618.09;107545;1251;97876;-63
2023/05/05 03:23:46;;;;;;;29.20;13.10;;;;;;;13.09;70.07;101616.01;107529;1251;111371;-59
2023/05/05 03:26:18;;;;;;;28.70;12.70;;;;;;;13.12;70.31;101617.03;107542;1251;109160;-60
2023/05/05 03:28:47;;;;;;;28.40;12.60;;;;;;;13.18;71.68;101616.19;107464;1250;108262;-60
2023/05/05 03:31:20;;;;;;;21.00;13.10;;;;;;;13.15;71.25;101621.43;107492;1251;97802;-60
2023/05/05 03:33:52;;;;;;;27.60;13.00;;;;;;;13.09;71.38;101623.06;107594;1251;98343;-61
2023/05/05 03:36:23;;;;;;;21.60;14.10;;;;;;;13.06;71.95;101624.80;107552;1251;111904;-61
2023/05/05 03:38:54;;;;;;;22.90;13.40;;;;;;;13.05;71.70;101628.58;107579;1251;109740;-62
2023/05/05 03:41:23;;;;;;;28.90;13.60;;;;;;;13.03;71.78;101627.38;107507;1251;107963;-61
2023/05/05 03:43:52;;;;;;;27.90;14.20;;;;;;;13.01;71.78;101632.40;107624;1252;97918;-60
2023/05/05 03:46:22;;;;;;;24.40;14.50;;;;;;;13.03;71.80;101630.62;107631;1254;97762;-61
2023/05/05 03:48:51;;;;;;;27.50;13.60;;;;;;;13.10;71.69;101630.56;107411;1254;111228;-60
2023/05/05 03:51:19;;;;;;;20.50;13.80;;;;;;;13.19;71.71;101632.27;107590;1252;108292;-61
2023/05/05 03:53:48;;;;;;;21.60;13.80;;;;;;;13.27;71.57;101630.13;107654;1251;108200;-62
2023/05/05 03:56:16;;;;;;;24.80;13.90;;;;;;;13.33;71.40;101627.17;107616;1251;97806;-61
2023/05/05 03:58:45;;;;;;;25.40;14.70;;;;;;;13.39;71.21;101628.95;107552;1254;97849;-61
2023/05/05 04:01:14;;;;;;;26.00;14.50;;;;;;;13.45;71.08;101630.10;107635;1253;112364;-61
2023/05/05 04:03:42;;;;;;;21.10;14.20;;;;;;;13.50;70.94;101627.01;107664;1251;108788;-60
2023/05/05 04:06:10;;;;;;;29.20;14.20;;;;;;;13.46;70.82;101630.19;107650;1254;108048;-61
2023/05/05 04:08:39;;;;;;;22.30;14.40;;;;;;;13.38;71.09;101637.54;107547;1251;97816;-62
2023/05/05 04:11:07;;;;;;;31.40;16.40;;;;;;;13.36;71.30;101636.29;107546;1251;97768;-61
2023/05/05 04:13:36;;;;;;;24.10;14.10;;;;;;;13.37;71.63;101638.34;107626;1251;111943;-62
2023/05/05 04:16:05;;;;;;;27.60;14.80;;;;;;;13.33;71.58;101640.66;107554;1251;109459;-61
2023/05/05 04:18:33;;;;;;;22.60;13.70;;;;;;;13.34;71.83;101641.09;107571;1251;108166;-62
2023/05/05 04:21:02;;;;;;;32.50;14.60;;;;;;;13.38;72.27;101638.81;107539;1254;97876;-62
2023/05/05 04:23:30;;;;;;;28.70;14.40;;;;;;;13.37;72.44;101641.05;107553;1251;98329;-60
2023/05/05 04:25:59;;;;;;;30.20;14.30;;;;;;;13.36;72.59;101641.65;107593;1251;111499;-61
2023/05/05 04:28:28;;;;;;;25.40;14.30;;;;;;;13.33;72.79;101652.88;107497;1254;109855;-62
2023/05/05 04:30:58;;;;;;;23.30;14.00;;;;;;;13.28;73.20;101649.73;107539;1252;106642;-61
2023/05/05 04:33:27;;;;;;;26.80;14.10;;;;;;;13.21;73.37;101648.39;107583;1251;97921;-60
2023/05/05 04:35:55;;;;;;;24.00;13.80;;;;;;;13.25;73.09;101647.48;107567;1254;98347;-61
2023/05/05 04:38:24;;;;;;;28.80;14.90;;;;;;;13.38;73.16;101645.63;107544;1254;110882;-59
2023/05/05 04:40:53;;;;;;;25.90;15.00;;;;;;;13.46;73.06;101641.53;107551;1251;109343;-62
2023/05/05 04:43:22;;;;;;;24.00;13.80;;;;;;;13.49;72.71;101643.85;107583;1254;108798;-59
2023/05/05 04:45:52;;;;;;;25.10;15.30;;;;;;;13.55;72.67;101648.15;107448;1252;98306;-61
2023/05/05 04:48:22;;;;;;;28.20;15.50;;;;;;;13.56;72.67;101648.92;107474;1254;97847;-60
2023/05/05 04:50:51;;;;;;;28.00;14.80;;;;;;;13.57;72.71;101653.17;107562;1251;112115;-62
2023/05/05 04:53:19;;;;;;;28.40;15.30;;;;;;;13.65;72.57;101657.05;107570;1251;109516;-63
2023/05/05 04:55:48;;;;;;;23.80;14.40;;;;;;;13.69;72.43;101654.70;107536;1251;107970;-61
2023/05/05 04:58:18;;;;;;;32.20;15.30;;;;;;;13.75;72.29;101656.67;107534;1251;97948;-59
2023/05/05 05:00:46;;;;;;;27.00;14.70;;;;;;;13.80;72.00;101654.98;107540;1251;98487;-62
2023/05/05 05:03:21;;;;;;;29.70;16.00;;;;;;;13.81;72.07;101655.48;107495;1251;112019;-60
2023/05/05 05:05:50;;;;;;;26.60;15.10;;;;;;;13.76;72.05;101655.71;107631;1256;109062;-60
2023/05/05 05:08:18;;;;;;;34.00;16.00;;;;;;;13.74;72.13;101658.38;107438;1251;107889;-60
2023/05/05 05:10:47;;;;;;;33.60;18.30;;;;;;;13.76;71.87;101654.73;107426;1254;97869;-61
2023/05/05 05:13:15;;;;;;;26.30;15.50;;;;;;;13.84;71.79;101654.09;107540;1251;97676;-62
2023/05/05 05:15:44;;;;;;;25.60;14.50;;;;;;;13.91;71.60;101654.21;107515;1253;111938;-62
2023/05/05 05:18:13;;;;;;;32.60;15.60;;;;;;;13.97;71.31;101655.11;107459;1257;108464;-60
2023/05/05 05:20:41;;;;;;;34.50;14.70;;;;;;;14.06;71.31;101660.13;107499;1254;108383;-63
2023/05/05 05:23:10;;;;;;;24.80;14.80;;;;;;;14.06;70.94;101661.33;107552;1253;97957;-62
2023/05/05 05:25:42;;;;;;;30.50;14.60;;;;;;;14.02;71.05;101663.18;107609;1254;97825;-60
2023/05/05 05:28:11;;;;;;;34.00;14.40;;;;;;;14.06;71.03;101664.45;107515;1251;111805;-60
2023/05/05 05:30:46;;;;;;;21.10;14.50;;;;;;;14.20;70.78;101666.77;107607;1251;109213;-62
2023/05/05 05:33:15;;;;;;;23.90;14.80;;;;;;;14.39;70.51;101663.66;107558;1252;108074;-60
2023/05/05 05:35:44;;;;;;;31.60;14.70;;;;;;;14.55;70.16;101662.16;107549;1251;97938;-62
2023/05/05 05:38:14;;;;;;;20.50;13.50;;;;;;;14.71;69.53;101665.84;107560;1254;98372;-58
2023/05/05 05:40:42;;;;;;;28.90;16.20;;;;;;;14.70;68.63;101661.42;107458;1251;112379;-61
2023/05/05 05:43:12;;;;;;;21.60;14.60;;;;;;;14.63;68.48;101661.10;107421;1251;110031;-61
2023/05/05 05:45:42;;;;;;;24.10;14.40;;;;;;;14.49;68.57;101667.46;107396;1251;107099;-63
2023/05/05 05:48:14;;;;;;;27.00;15.00;;;;;;;14.30;68.92;101661.42;107555;1251;97845;-59
2023/05/05 05:50:43;;;;;;;25.10;14.10;;;;;;;14.22;69.17;101669.13;107516;1252;97692;-59
2023/05/05 05:53:12;;;;;;;26.70;14.60;;;;;;;14.20;69.60;101671.32;107461;1251;111880;-60
2023/05/05 05:55:44;;;;;;;25.40;14.30;;;;;;;14.12;69.93;101672.17;107587;1251;109972;-60
2023/05/05 05:58:13;;;;;;;22.80;13.70;;;;;;;14.07;69.99;101671.21;107554;1251;107196;-61
2023/05/05 06:00:42;;;;;;;22.40;14.70;;;;;;;14.12;70.08;101669.80;107415;1252;97646;-63
2023/05/05 06:03:12;;;;;;;22.50;13.30;;;;;;;14.17;70.11;101668.67;107536;1251;98349;-60
2023/05/05 06:05:41;;;;;;;22.60;13.20;;;;;;;14.20;70.12;101667.86;107609;1251;112251;-60
2023/05/05 06:08:11;;;;;;;18.90;13.60;;;;;;;14.25;70.12;101663.63;107586;1251;109873;-61
2023/05/05 06:10:44;;;;;;;;;;;;;;;14.29;70.00;101661.85;107488;1251;108822;-62
2023/05/05 06:13:15;;;;;;;25.90;13.80;;;;;;;14.30;69.73;101656.14;107476;1250;97886;-60
2023/05/05 06:15:46;;;;;;;22.70;13.00;;;;;;;14.44;69.77;101651.46;107476;1252;98350;-60
2023/05/05 06:18:15;;;;;;;22.90;13.20;;;;;;;14.60;69.59;101651.98;107589;1250;110304;-60
2023/05/05 06:20:43;;;;;;;21.50;13.00;;;;;;;14.74;69.22;101653.45;107545;1254;109621;-61
2023/05/05 06:23:13;;;;;;;24.70;14.00;;;;;;;14.83;68.80;101655.35;107517;1251;107917;-59
2023/05/05 06:25:46;;;;;;;27.60;12.90;;;;;;;14.97;68.78;101649.55;107518;1251;97825;-59
2023/05/05 06:28:15;;;;;;;24.70;12.00;;;;;;;15.14;68.17;101655.55;107507;1251;98340;-59
2023/05/05 06:30:43;;;;;;;21.60;13.10;;;;;;;15.17;67.03;101653.93;107581;1251;113259;-61
2023/05/05 06:33:12;;;;;;;29.10;12.20;;;;;;;15.23;66.67;101655.95;107581;1251;108955;-61
2023/05/05 06:35:40;;;;;;;27.40;11.90;;;;;;;15.36;66.76;101653.14;107590;1251;107832;-60
2023/05/05 06:38:09;;;;;;;24.70;13.50;;;;;;;15.46;65.98;101652.18;107504;1251;97816;-60
2023/05/05 06:40:37;;;;;;;24.70;12.60;;;;;;;15.52;65.53;101651.20;107555;1251;97843;-60
2023/05/05 06:43:06;;;;;;;30.20;15.20;;;;;;;15.61;65.42;101650.36;107555;1251;111199;-60
2023/05/05 06:45:40;;;;;;;26.30;15.70;;;;;;;15.77;65.55;101646.02;107539;1254;108504;-61
2023/05/05 06:48:11;;;;;;;25.30;12.20;;;;;;;15.98;65.50;101646.89;107529;1251;107342;-61
2023/05/05 06:50:39;;;;;;;23.40;11.80;;;;;;;16.18;64.93;101642.92;107526;1251;97906;-60
2023/05/05 06:53:07;;;;;;;18.30;11.40;;;;;;;16.29;64.27;101639.65;107563;1251;97773;-59
2023/05/05 06:55:36;;;;;;;24.60;11.10;;;;;;;16.30;63.79;101639.77;107523;1251;111136;-61
2023/05/05 06:58:04;;;;;;;20.50;10.90;;;;;;;16.22;62.99;101632.38;107471;1254;109910;-59
2023/05/05 07:00:33;;;;;;;17.00;11.30;;;;;;;16.12;63.24;101638.23;107605;1253;106932;-60
2023/05/05 07:03:01;;;;;;;33.90;11.00;;;;;;;16.01;63.12;101636.81;107548;1251;97851;-60
2023/05/05 07:05:29;;;;;;;21.90;12.50;;;;;;;15.94;63.41;101633.13;107425;1253;98360;-60
2023/05/05 07:07:58;;;;;;;18.50;11.70;;;;;;;15.91;63.53;101630.29;107436;1251;111508;-62
2023/05/05 07:10:27;;;;;;;22.80;11.50;;;;;;;15.98;63.64;101630.06;107598;1251;109063;-61
2023/05/05 07:12:55;;;;;;;18.30;11.00;;;;;;;16.03;63.41;101628.60;107458;1254;108311;-61
2023/05/05 07:15:24;;;;;;;17.70;9.80;;;;;;;16.10;63.14;101625.91;107579;1253;97887;-58
2023/05/05 07:17:56;;;;;;;16.00;9.50;;;;;;;16.20;62.93;101630.58;107567;1251;97855;-61
2023/05/05 07:20:26;;;;;;;15.00;9.60;;;;;;;16.24;62.55;101632.14;107520;1251;111719;-61
2023/05/05 07:22:54;;;;;;;18.20;10.80;;;;;;;16.31;62.59;101633.48;107553;1251;110323;-60
2023/05/05 07:25:23;;;;;;;16.20;9.30;;;;;;;16.36;62.24;101633.86;107476;1254;107968;-61
2023/05/05 07:27:54;;;;;;;20.10;10.00;;;;;;;16.43;62.24;101636.10;107471;1251;97832;-59
2023/05/05 07:30:24;;;;;;;22.90;9.20;;;;;;;16.45;61.61;101634.66;107492;1251;97963;-62
2023/05/05 07:32:54;;;;;;;17.10;9.30;;;;;;;16.39;61.32;101635.08;107585;1251;112384;-58
2023/05/05 07:35:22;;;;;;;14.20;8.60;;;;;;;16.43;61.29;101632.54;107610;1251;108997;-60
2023/05/05 07:37:51;;;;;;;16.00;9.90;;;;;;;16.52;61.80;101634.48;107621;1251;108126;-60
2023/05/05 07:40:19;;;;;;;18.40;10.40;;;;;;;16.58;61.67;101639.52;107521;1251;97866;-59
2023/05/05 07:42:48;;;;;;;18.60;10.30;;;;;;;16.62;61.37;101633.34;107404;1251;97853;-60
2023/05/05 07:45:16;;;;;;;16.00;9.60;;;;;;;16.69;60.98;101636.77;107516;1251;112339;-61
2023/05/05 07:47:45;;;;;;;20.10;10.20;;;;;;;16.68;60.79;101635.77;107502;1251;109632;-60
2023/05/05 07:50:14;;;;;;;21.30;9.70;;;;;;;16.66;60.87;101629.45;107518;1252;106360;-61
2023/05/05 07:52:42;;;;;;;20.50;9.90;;;;;;;16.73;61.28;101626.24;107510;1251;97840;-60
2023/05/05 07:55:21;;;;;;;24.50;10.50;;;;;;;16.88;61.42;101623.41;107582;1251;97806;-59
2023/05/05 07:57:50;;;;;;;17.40;8.90;;;;;;;17.03;61.24;101628.27;107451;1252;110481;-60
2023/05/05 08:00:20;;;;;;;15.50;8.20;;;;;;;17.18;59.93;101623.64;106782;1251;1187380;-61
2023/05/05 08:02:48;;;;;;;16.80;8.20;;;;;;;17.33;59.47;101622.86;107523;1251;108576;-60
2023/05/05 08:05:18;;;;;;;22.00;8.50;;;;;;;17.48;59.24;101621.66;107563;1251;97804;-61
2023/05/05 08:07:46;;;;;;;13.80;8.20;;;;;;;17.64;58.40;101617.66;107546;1251;97692;-61
2023/05/05 08:10:15;;;;;;;15.40;9.20;;;;;;;17.82;57.29;101617.04;107611;1250;111086;-62
2023/05/05 08:12:44;;;;;;;17.30;9.40;;;;;;;17.95;57.73;101616.14;107553;1250;109938;-61
2023/05/05 08:15:13;;;;;;;15.40;9.60;;;;;;;18.02;56.89;101620.95;107490;1253;108651;-60
2023/05/05 08:17:48;;;;;;;21.70;9.80;;;;;;;18.01;57.29;101621.63;107582;1251;97909;-59
2023/05/05 08:20:18;;;;;;;19.80;8.10;;;;;;;18.02;57.17;101619.80;107623;1250;97808;-59
2023/05/05 08:22:47;;;;;;;12.30;7.30;;;;;;;18.16;56.64;101616.20;107534;1251;111536;-62
2023/05/05 08:25:15;;;;;;;18.50;7.40;;;;;;;18.28;55.16;101610.48;107587;1251;110232;-60
2023/05/05 08:27:44;;;;;;;26.60;9.10;;;;;;;18.40;55.11;101615.02;107598;1251;108686;-63
2023/05/05 08:30:16;;;;;;;15.20;7.10;;;;;;;18.56;54.81;101618.23;107536;1251;97821;-63
2023/05/05 08:32:45;;;;;;;13.50;7.70;;;;;;;18.61;54.71;101615.13;107562;1250;97872;-61
2023/05/05 08:35:14;;;;;;;12.70;6.90;;;;;;;18.69;54.17;101611.70;107600;1251;112027;-60
2023/05/05 08:37:46;;;;;;;13.80;6.90;;;;;;;18.71;53.45;101607.30;107608;1254;109013;-61
2023/05/05 08:40:15;;;;;;;20.90;11.70;;;;;;;18.92;53.15;101608.03;107585;1255;108971;-62
2023/05/05 08:42:44;;;;;;;13.20;6.10;;;;;;;19.14;52.64;101616.41;107480;1256;97868;-61
2023/05/05 08:45:13;;;;;;;23.80;6.90;;;;;;;19.26;52.49;101612.48;107623;1251;97720;-64
2023/05/05 08:47:48;;;;;;;8.80;6.50;;;;;;;19.46;52.44;101612.12;107570;1254;111908;-63
2023/05/05 08:50:47;;;;;;;11.20;6.50;;;;;;;19.72;52.34;101606.28;107593;1254;107516;-60
2023/05/05 08:53:16;;;;;;;13.60;6.10;;;;;;;19.89;51.62;101600.50;107640;1251;107163;-59
2023/05/05 08:55:50;;;;;;;11.70;6.30;;;;;;;19.94;50.66;101602.34;107607;1250;98006;-60
2023/05/05 08:58:20;;;;;;;10.70;5.60;;;;;;;20.00;49.81;101604.16;107635;1251;97784;-60
2023/05/05 09:00:49;;;;;;;14.00;5.40;;;;;;;20.10;49.41;101603.04;107606;1254;113172;-61
2023/05/05 09:03:18;;;;;;;8.00;5.00;;;;;;;20.21;48.52;101600.57;107623;1251;109009;-60
2023/05/05 09:05:46;;;;;;;9.70;4.40;;;;;;;20.44;47.94;101606.13;107630;1250;108320;-59
2023/05/05 09:08:16;;;;;;;9.50;4.60;;;;;;;20.70;47.43;101603.86;107579;1251;97692;-60
2023/05/05 09:10:46;;;;;;;13.20;4.90;;;;;;;20.92;47.13;101601.75;107573;1251;99594;-60
2023/05/05 09:13:14;;;;;;;15.30;4.50;;;;;;;21.10;45.99;101595.40;107580;1251;111246;-62
2023/05/05 09:15:43;;;;;;;7.70;2.10;;;;;;;21.30;42.90;101590.48;107555;1251;110168;-61
2023/05/05 09:18:12;;;;;;;4.00;2.00;;;;;;;21.40;38.73;101590.71;107575;1250;108054;-62
2023/05/05 09:20:40;;;;;;;8.20;2.20;;;;;;;21.63;38.49;101586.66;107530;1251;97828;-61
2023/05/05 09:23:14;;;;;;;19.60;3.40;;;;;;;22.26;38.16;101589.64;107512;1254;98401;-61
2023/05/05 09:25:45;;;;;;;3.10;1.90;;;;;;;22.53;37.22;101585.21;107565;1251;112313;-61
2023/05/05 09:28:16;;;;;;;3.00;2.30;;;;;;;22.59;37.36;101582.17;107496;1251;108689;-62
2023/05/05 09:30:46;;;;;;;6.30;2.50;;;;;;;23.23;37.11;101574.90;107477;1251;107800;-61
2023/05/05 09:33:27;;;;;;;8.20;2.60;;;;;;;23.72;36.92;101577.16;107552;1251;98356;-63
2023/05/05 09:35:57;;;;;;;6.90;2.20;;;;;;;24.25;36.38;101576.30;107507;1251;97724;-60
2023/05/05 09:38:25;;;;;;;6.40;3.00;;;;;;;24.76;34.79;101574.82;107535;1251;112311;-62
2023/05/05 09:40:54;;;;;;;12.30;2.70;;;;;;;24.66;34.09;101574.70;107603;1251;109739;-62
2023/05/05 09:43:23;;;;;;;5.70;1.70;;;;;;;25.06;34.45;101575.64;107593;1251;108089;-61
2023/05/05 09:46:06;;;;;;;10.00;4.30;;;;;;;25.43;33.10;101576.37;107527;1251;97800;-64
2023/05/05 09:48:35;;;;;;;6.20;2.00;;;;;;;25.24;32.09;101575.91;107617;1256;97829;-60
2023/05/05 09:51:03;;;;;;;7.60;2.50;;;;;;;25.04;31.53;101578.91;107544;1251;110951;-60
2023/05/05 09:53:41;;;;;;;7.40;1.70;;;;;;;25.22;31.17;101580.62;107513;1251;110771;-62
2023/05/05 09:56:17;;;;;;;;;;;;;;;25.71;30.26;101575.42;107642;1251;107883;-64
2023/05/05 09:58:48;;;;;;;6.90;2.10;;;;;;;26.12;29.91;101570.46;107516;1251;97823;-62
2023/05/05 10:01:25;;;;;;;6.50;1.50;;;;;;;26.64;30.43;101564.73;107549;1251;97092;-62
2023/05/05 10:03:54;;;;;;;6.80;2.30;;;;;;;27.53;29.46;101565.94;107595;1253;112033;-65
2023/05/05 10:06:38;;;;;;;7.10;2.30;;;;;;;28.15;28.86;101565.09;107617;1254;110839;-60
2023/05/05 10:09:06;;;;;;;5.10;2.10;;;;;;;28.62;28.08;101561.27;107572;1254;107301;-64
2023/05/05 10:11:35;;;;;;;5.50;1.90;;;;;;;28.59;27.06;101558.05;107555;1255;98011;-60
2023/05/05 10:14:07;;;;;;;9.10;2.10;;;;;;;27.97;26.75;101561.73;107654;1251;98339;-61
2023/05/05 10:16:42;;;;;;;8.50;2.30;;;;;;;27.27;27.62;101557.27;107619;1254;112314;-63
2023/05/05 10:19:15;;;;;;;5.50;2.00;;;;;;;26.75;28.85;101557.13;107607;1251;110747;-61
2023/05/05 10:22:00;;;;;;;3.80;1.90;;;;;;;26.94;29.21;101558.94;107640;1256;107499;-62
2023/05/05 10:24:50;;;;;;;5.90;2.00;;;;;;;27.04;28.29;101551.84;107504;1251;97815;-61
2023/05/05 10:27:23;;;;;;;8.30;2.60;;;;;;;26.57;28.89;101554.26;107598;1251;97710;-63
2023/05/05 10:30:05;;;;;;;4.90;2.00;;;;;;;26.11;29.42;101558.38;107555;1254;113237;-63
2023/05/05 10:32:46;;;;;;;7.00;2.10;;;;;;;25.85;29.36;101554.60;107601;1251;110001;-62
2023/05/05 10:35:38;;;;;;;5.10;1.80;;;;;;;26.58;30.02;101547.45;107562;1251;108584;-61
2023/05/05 10:38:08;;;;;;;6.60;1.70;;;;;;;27.35;29.07;101546.83;107524;1251;97902;-61
2023/05/05 10:40:44;;;;;;;3.40;2.00;;;;;;;27.57;27.62;101544.90;107583;1251;98341;-60
2023/05/05 10:43:13;;;;;;;5.30;2.20;;;;;;;27.84;27.82;101543.20;107564;1251;111893;-60
2023/05/05 10:45:47;;;;;;;6.50;1.80;;;;;;;27.25;28.05;101541.16;107582;1251;109705;-64
2023/05/05 10:48:45;;;;;;;9.20;2.00;;;;;;;26.59;28.98;101539.55;107597;1251;108990;-62
2023/05/05 10:51:21;;;;;;;9.00;2.30;;;;;;;26.96;28.30;101540.14;107461;1254;97907;-61
2023/05/05 10:54:15;;;;;;;10.60;2.40;;;;;;;27.91;26.88;101534.98;107531;1253;97825;-59
2023/05/05 10:56:47;;;;;;;3.20;1.90;;;;;;;28.79;26.87;101535.61;107628;1253;111528;-62
2023/05/05 10:59:46;;;;;;;7.00;2.10;;;;;;;29.75;26.16;101532.86;107628;1254;109921;-60
2023/05/05 11:02:20;;;;;;;4.50;2.10;;;;;;;29.40;26.07;101535.00;107476;1254;107019;-60
2023/05/05 11:05:19;;;;;;;6.40;2.10;;;;;;;28.78;25.76;101534.30;107529;1252;97727;-61
2023/05/05 11:07:49;;;;;;;5.90;2.20;;;;;;;28.06;26.25;101529.59;107625;1254;97700;-64
2023/05/05 11:10:19;;;;;;;2.30;1.90;;;;;;;28.00;26.84;101528.15;107590;1255;111693;-61
2023/05/05 11:12:50;;;;;;;5.30;2.00;;;;;;;28.20;26.95;101522.77;107577;1252;108611;-60
2023/05/05 11:15:25;;;;;;;3.30;1.80;;;;;;;28.56;26.59;101523.55;107566;1253;108161;-60
2023/05/05 11:18:01;;;;;;;3.10;1.90;;;;;;;29.45;25.21;101520.43;107554;1254;97733;-59
2023/05/05 11:20:38;;;;;;;6.50;2.10;;;;;;;30.42;25.14;101509.84;107616;1254;97838;-60
2023/05/05 11:23:06;;;;;;;3.50;2.30;;;;;;;30.67;25.12;101512.39;107598;1253;112362;-60